Aérodrome :
LOGIN :

S'inscrire | Disclaimer

   EN    FR    IT 

 










Légende :    VFR   VFR Marginal   IFR   IFR Intensif   IFR Très Intensif
Visi : 
Plafond : 
>= 8 km
>= 3000ft
5 à 8 km
1000 à 3000 ft
1500m à 5 km
500 à 1000 ft
800 à 1500m
200 à 500 ft
< 800m
< 200 ft
Symboles :   Orages  Brouillard  Fortes neiges  Fortes précipitations  Vent > 20 kt
SIGMETs :   Divers  Orages  Givrage  Turbulence  Onde Orograph.  Cendres Volcan.






- Altitude de l'aérodrome : 359 ft
- Code IATA : BVA


LFOB - Beauvais

DERNIER METAR :
  • 150500Z AUTO VRB02KT CAVOK M00/M01 Q1030 NOSIG

METARs EXPIRÉS :
  • 150430Z AUTO VRB01KT CAVOK 00/M01 Q1030 NOSIG
  • 150400Z AUTO 01009KT CAVOK 01/M00 Q1030 NOSIG
  • 150330Z AUTO 01010KT CAVOK 01/M00 Q1029 NOSIG
  • 150300Z AUTO 01010KT CAVOK 01/M00 Q1029 NOSIG
  • 150230Z AUTO 01010KT CAVOK 01/M00 Q1029 NOSIG
  • 150200Z AUTO 01009KT CAVOK 01/M00 Q1029 NOSIG

TAF TAF LFOB
Valide du 15 à 00h jusqu'au 16 à 00h UTC


142300Z 1500/1524 01010KT CAVOK
TEMPO 1514/1517 BKN040TCU
PROB40
TEMPO 1515/1517 03015G25KT 3000 SHRAGS BKN025CB
ATIS : +33 3 44 11 49 28



MET'MAP, la Météo Aéronautique d'un coup d'oeil ! - Copyright ORBIFLY Décembre 2007 - Disclaimer

ORBIFLY MET'MAP TEAM :

Programmation & Développement : Alexandra Zaïnal
Sur une idée originale de : Baudouin d'Aumeries
Assistance à la programmation : Marc-Olivier Méhu
Soutien technique & logistique : Manuel Goepfert

Contact : metmap@orbifly.com




SOURCES & CREDITS :

   NOAA